EW6418 Weather Reports


Display with metric or nautical units.
time (UTC)temp
F
wind
direction
speed
MPH
gust
MPH
rain 1hr
in
rain 24hr
in
rain mn
in
humidity
%
barometer
mb
20210730133118 70 5 1.0 3.0 0.00 1.05 0.00 88 1020.7
20210730131701 69 344 1.0 6.0 0.00 1.05 0.00 89 1020.7
20210730130117 69 355 1.0 5.0 0.00 1.05 0.00 90 1020.7
20210730124610 68 40 1.0 8.0 0.00 1.05 0.00 90 1020.7
20210730123114 69 355 1.0 3.0 0.00 1.05 0.00 90 1020.5
20210730121546 69 355 0.0 3.0 0.00 1.05 0.00 90 1020.2
20210730120118 69 344 0.0 3.0 0.00 1.05 0.00 90 1020.1
20210730114600 69 10 0.0 3.0 0.00 1.05 0.00 90 1019.8
20210730113110 69 349 2.0 5.0 0.00 1.05 0.00 90 1019.6
20210730111804 69 11 1.0 4.0 0.00 1.05 0.00 90 1019.6
20210730110152 69 355 1.0 2.0 0.00 1.05 0.00 90 1019.4
20210730104613 69 360 0.0 2.0 0.00 1.05 0.00 90 1019.1
20210730103042 70 360 0.0 1.0 0.00 1.05 0.00 90 1018.9
20210730101549 70 360 0.0 3.0 0.00 1.05 0.00 90 1018.8
20210730100048 70 355 0.0 4.0 0.00 1.05 0.00 90 1018.6
20210730094549 70 5 1.0 5.0 0.00 1.05 0.00 90 1018.5
20210730093116 70 24 0.0 3.0 0.00 1.05 0.00 90 1018.4
20210730091645 70 350 0.0 2.0 0.00 1.05 0.00 90 1018.3
20210730090052 70 331 0.0 2.0 0.00 1.05 0.00 90 1018.1
20210730084609 70 355 1.0 3.0 0.00 1.05 0.00 90 1018.0
20210730083123 71 350 1.0 2.0 0.00 1.05 0.00 90 1018.0
20210730081634 71 345 0.0 2.0 0.00 1.05 0.00 90 1017.7
20210730080053 71 345 0.0 2.0 0.00 1.05 0.00 90 1017.8
20210730074526 70 204 0.0 2.0 0.00 1.05 0.00 90 1017.8
20210730073037 70 203 0.0 1.0 0.00 1.05 0.00 90 1017.8
20210730071525 68 203 0.0 0.0 0.00 1.05 0.00 90 1017.7
20210730070040 69 203 0.0 0.0 0.00 1.05 0.00 89 1017.7
20210730064551 69 203 0.0 0.0 0.00 1.05 0.00 90 1017.5
20210730063124 70 203 0.0 1.0 0.00 1.05 0.00 90 1017.4
20210730061516 70 203 0.0 2.0 0.00 1.05 0.00 90 1017.5
20210730060111 71 203 0.0 1.0 0.00 1.05 0.00 90 1017.6
20210730053008 71 204 0.0 3.0 0.00 1.05 0.00 90 1017.7
20210730051526 71 195 0.0 2.0 0.00 1.05 0.00 90 1017.4
20210730050011 71 202 1.0 3.0 0.00 1.05 0.00 90 1017.2
20210730044510 71 212 2.0 4.0 0.00 1.05 0.00 90 1017.1
20210730043005 71 336 0.0 4.0 0.00 1.05 0.00 90 1017.0
20210730041944 71 198 2.0 5.0 0.00 1.05 0.00 90 1016.7
20210730040143 71 187 2.0 6.0 0.00 1.05 0.00 90 1017.0
20210730034656 71 215 2.0 5.0 0.00 1.05 1.04 90 1017.0
20210730033342 71 222 0.0 3.0 0.00 1.05 1.04 89 1016.8
20210730031817 71 219 1.0 3.0 0.00 1.05 1.04 90 1017.1
20210730030245 71 221 0.0 3.0 0.00 1.05 1.04 89 1016.8
20210730024757 71 221 0.0 0.0 0.00 1.05 1.04 89 1016.4
20210730023129 71 221 0.0 3.0 0.00 1.05 1.04 89 1016.3
20210730021712 71 220 0.0 0.0 0.00 1.05 1.04 89 1016.2
20210730020132 71 220 0.0 1.0 0.00 1.05 1.04 89 1016.2
20210730014612 71 220 0.0 2.0 0.00 1.05 1.04 89 1016.5
20210730013051 72 222 0.0 3.0 0.00 1.05 1.04 89 1016.6
20210730011722 72 142 0.0 6.0 0.00 1.05 1.04 89 1016.6
20210730010138 72 184 2.0 5.0 0.00 1.05 1.04 89 1016.5
20210730004616 72 225 2.0 4.0 0.01 1.05 1.04 89 1016.6
20210730003107 72 192 2.0 6.0 0.06 1.05 1.04 89 1016.6
20210730001613 72 225 3.0 6.0 0.09 1.05 1.04 88 1016.8
20210730000138 71 175 2.0 4.0 0.25 1.05 1.04 88 1016.0
20210729234623 72 28 1.0 7.0 0.44 1.04 1.03 88 1016.5
20210729233207 72 291 1.0 4.0 0.41 0.99 0.98 88 1016.8
20210729231606 72 49 0.0 4.0 0.90 0.96 0.95 87 1017.1
20210729230056 73 159 0.0 5.0 0.79 0.80 0.79 86 1017.0
20210729224708 73 348 0.0 2.0 0.59 0.60 0.59 85 1016.6
20210729223149 73 140 2.0 11.0 0.55 0.56 0.55 83 1016.5
20210729221548 75 17 2.0 5.0 0.03 0.04 0.03 79 1016.9
20210729220033 78 12 3.0 5.0 0.00 0.01 0.00 72 1016.2
20210729214612 0 0.0 0.0 0.00 0.01 0.00
20210729213006 84 208 6.0 16.0 0.00 0.01 0.01 69 1015.6
20210729211504 85 215 7.0 15.0 0.00 0.01 0.01 68 1014.9
20210729210003 85 255 7.0 17.0 0.00 0.01 0.01 68 1015.9
20210729204623 87 199 7.0 15.0 0.00 0.01 0.01 66 1015.8
20210729203134 87 228 9.0 17.0 0.00 0.01 0.01 65 1016.2
20210729201858 87 221 8.0 14.0 0.00 0.01 0.01 66 1016.5
20210729200203 87 209 9.0 18.0 0.00 0.01 0.01 65 1016.1
20210729194618 87 221 7.0 12.0 0.00 0.01 0.01 67 1016.4
20210729193133 87 209 4.0 12.0 0.00 0.01 0.01 68 1016.8
20210729191643 86 229 8.0 16.0 0.00 0.01 0.01 67 1016.7
20210729190124 86 193 8.0 15.0 0.00 0.01 0.01 68 1016.8
20210729184614 86 234 8.0 14.0 0.00 0.01 0.01 69 1016.8
20210729183118 85 205 6.0 11.0 0.00 0.01 0.01 71 1016.9
20210729181546 85 200 8.0 15.0 0.00 0.01 0.01 70 1016.9
20210729180125 85 186 6.0 13.0 0.00 0.01 0.01 72 1017.5
20210729174628 84 182 5.0 14.0 0.00 0.01 0.01 73 1017.5
20210729173110 84 223 6.0 12.0 0.00 0.01 0.01 74 1017.7
20210729171620 84 207 6.0 11.0 0.00 0.01 0.01 73 1017.9
20210729170052 83 217 6.0 10.0 0.00 0.01 0.01 78 1018.1
20210729164603 82 232 4.0 9.0 0.00 0.01 0.01 81 1018.4
20210729163031 81 188 6.0 10.0 0.00 0.01 0.01 81 1018.5
20210729161621 80 171 6.0 10.0 0.00 0.01 0.01 82 1018.7
20210729160029 80 223 4.0 9.0 0.00 0.01 0.01 84 1019.1
20210729154553 78 222 3.0 8.0 0.00 0.01 0.01 85 1019.3
20210729153022 77 207 1.0 5.0 0.00 0.01 0.01 86 1019.7
20210729151520 77 248 2.0 5.0 0.00 0.01 0.01 86 1019.6
20210729150016 76 234 3.0 7.0 0.00 0.01 0.01 87 1019.6
20210729144514 75 250 3.0 8.0 0.00 0.01 0.01 88 1018.7
20210729143004 74 234 5.0 10.0 0.01 0.01 0.01 89 1017.9
20210729141706 73 118 5.0 9.0 0.01 0.01 0.01 90 1017.8
20210729140235 72 199 3.0 7.0 0.01 0.01 0.01 90 1018.5
20210729134640 72 166 3.0 5.0 0.01 0.01 0.01 90 1018.8